Time;durP1;ratioP1;P1;durP2;ratioP2;P2;SDS_P1;SDS_P2;PMS_P1;PMS_P2;Temp;Humidity;BMP_temperature;BMP_pressure;BME280_temperature;BME280_humidity;BME280_pressure;Samples;Min_cycle;Max_cycle;Signal;HPM_P1;HPM_P2
2021/11/01 00:00:09;;;;;;;1.02;0.63;;;16.80;94.60;;;;;;5031052;28;20095;-71
2021/11/01 00:02:35;;;;;;;1.05;0.60;;;16.80;94.50;;;;;;5030726;28;20269;-70
2021/11/01 00:05:00;;;;;;;2.25;0.80;;;16.80;94.50;;;;;;5030636;28;20652;-70
2021/11/01 00:07:27;;;;;;;1.25;0.73;;;16.70;94.50;;;;;;5031526;28;20067;-70
2021/11/01 00:09:53;;;;;;;1.42;0.70;;;16.70;94.50;;;;;;5031119;28;20366;-71
2021/11/01 00:12:19;;;;;;;1.50;1.13;;;16.70;94.40;;;;;;5030711;28;20033;-70
2021/11/01 00:14:45;;;;;;;0.90;0.73;;;16.60;94.50;;;;;;5030699;28;20062;-68
2021/11/01 00:17:10;;;;;;;1.55;0.70;;;16.60;94.40;;;;;;5030578;28;20024;-70
2021/11/01 00:19:36;;;;;;;1.25;0.70;;;16.70;94.40;;;;;;5030702;28;20021;-70
2021/11/01 00:22:02;;;;;;;5.00;0.70;;;16.60;94.50;;;;;;5031656;28;20021;-70
2021/11/01 00:24:27;;;;;;;1.02;0.73;;;16.60;94.40;;;;;;5030579;28;20567;-70
2021/11/01 00:26:53;;;;;;;0.73;0.60;;;16.60;94.40;;;;;;5030661;28;20450;-71
2021/11/01 00:29:19;;;;;;;0.75;0.50;;;16.50;94.30;;;;;;5030776;28;20037;-70
2021/11/01 00:31:44;;;;;;;3.28;0.45;;;16.50;94.20;;;;;;5030351;28;20523;-71
2021/11/01 00:34:10;;;;;;;1.95;0.60;;;16.40;94.20;;;;;;5030918;28;20060;-70
2021/11/01 00:36:35;;;;;;;1.40;0.45;;;16.50;94.20;;;;;;5030561;28;20084;-69
2021/11/01 00:39:01;;;;;;;0.90;0.40;;;16.50;94.00;;;;;;5030468;28;20037;-70
2021/11/01 00:41:27;;;;;;;0.70;0.47;;;16.50;93.90;;;;;;5012876;28;20416;-70
2021/11/01 00:43:53;;;;;;;1.25;0.40;;;16.40;94.20;;;;;;5030394;28;20168;-70
2021/11/01 00:46:18;;;;;;;2.80;0.77;;;16.40;94.00;;;;;;5030819;28;20041;-70
2021/11/01 00:48:44;;;;;;;1.58;0.50;;;16.40;93.90;;;;;;5030406;28;20030;-70
2021/11/01 00:51:09;;;;;;;2.28;0.57;;;16.30;93.90;;;;;;5029315;28;20030;-70
2021/11/01 00:53:36;;;;;;;1.80;0.50;;;16.40;93.80;;;;;;5030623;28;20026;-71
2021/11/01 00:56:03;;;;;;;2.05;0.65;;;16.40;93.80;;;;;;5030462;28;20121;-70
2021/11/01 00:58:29;;;;;;;1.60;0.68;;;16.40;93.80;;;;;;5030941;28;20057;-69
2021/11/01 01:00:56;;;;;;;4.95;0.43;;;16.20;93.90;;;;;;5030227;28;20042;-70
2021/11/01 01:03:22;;;;;;;2.35;0.50;;;16.30;94.00;;;;;;5033771;28;20030;-70
2021/11/01 01:05:50;;;;;;;5.78;0.68;;;16.30;93.90;;;;;;5029433;28;20056;-70
2021/11/01 01:08:17;;;;;;;1.70;0.70;;;16.40;93.60;;;;;;5014226;28;20117;-70
2021/11/01 01:10:45;;;;;;;4.28;0.68;;;16.30;93.20;;;;;;5014083;28;20022;-70
2021/11/01 01:13:12;;;;;;;9.93;1.02;;;16.20;92.90;;;;;;5014915;28;20049;-70
2021/11/01 01:15:53;;;;;;;5.13;1.17;;;16.30;92.90;;;;;;5013333;28;20551;-71
2021/11/01 01:18:23;;;;;;;3.90;0.65;;;16.30;92.90;;;;;;5014228;28;20033;-70
2021/11/01 01:20:50;;;;;;;4.30;1.00;;;16.30;92.70;;;;;;5014060;28;20471;-71
2021/11/01 01:23:16;;;;;;;6.45;1.35;;;16.30;92.70;;;;;;5013857;28;20038;-70
2021/11/01 01:25:47;;;;;;;6.47;1.00;;;16.30;92.30;;;;;;5013892;28;20088;-70
2021/11/01 01:28:14;;;;;;;8.85;1.30;;;16.20;92.10;;;;;;5014160;28;20018;-69
2021/11/01 01:30:40;;;;;;;7.75;1.25;;;16.10;92.10;;;;;;5013706;28;20045;-70
2021/11/01 01:33:10;;;;;;;4.25;1.00;;;16.10;92.10;;;;;;5013828;28;20036;-70
2021/11/01 01:35:40;;;;;;;8.02;1.40;;;16.00;91.90;;;;;;5013910;28;20056;-71
2021/11/01 01:38:06;;;;;;;5.50;1.27;;;16.00;92.10;;;;;;5013978;28;20053;-71
2021/11/01 01:40:32;;;;;;;3.55;0.85;;;15.90;92.00;;;;;;5013509;28;20041;-70
2021/11/01 01:42:57;;;;;;;6.18;1.17;;;15.90;92.10;;;;;;5013962;28;20026;-70
2021/11/01 01:45:23;;;;;;;3.83;0.88;;;15.90;92.10;;;;;;5012678;28;20044;-70
2021/11/01 01:47:49;;;;;;;8.38;1.10;;;15.90;92.00;;;;;;5013366;28;20038;-70
2021/11/01 01:50:15;;;;;;;12.90;1.92;;;15.90;91.90;;;;;;5029224;28;20057;-70
2021/11/01 01:52:42;;;;;;;8.38;1.08;;;16.00;92.00;;;;;;5013347;28;20022;-70
2021/11/01 01:55:13;;;;;;;6.97;1.45;;;15.80;92.00;;;;;;5014026;28;20097;-70
2021/11/01 01:57:39;;;;;;;10.75;1.60;;;15.80;91.90;;;;;;5013155;28;20038;-70
2021/11/01 02:00:15;;;;;;;9.15;1.70;;;15.80;92.00;;;;;;5013505;28;20133;-70
2021/11/01 02:02:42;;;;;;;5.00;0.85;;;15.80;92.10;;;;;;5012160;28;20033;-70
2021/11/01 02:05:07;;;;;;;5.50;0.98;;;15.70;92.20;;;;;;5012174;28;20056;-71
2021/11/01 02:07:47;;;;;;;6.97;1.10;;;15.60;92.50;;;;;;5013207;28;20021;-70
2021/11/01 02:10:15;;;;;;;8.32;1.65;;;15.60;92.60;;;;;;5013724;28;20029;-70
2021/11/01 02:12:54;;;;;;;8.68;1.40;;;15.70;92.50;;;;;;5012803;28;20030;-70
2021/11/01 02:15:25;;;;;;;7.57;1.30;;;15.60;92.40;;;;;;5012003;28;20038;-71
2021/11/01 02:17:55;;;;;;;6.13;1.33;;;15.70;92.50;;;;;;5011833;28;20065;-71
2021/11/01 02:20:35;;;;;;;5.60;1.60;;;15.70;92.40;;;;;;5012938;28;20042;-70
2021/11/01 02:23:19;;;;;;;12.23;1.90;;;15.70;92.40;;;;;;5013014;28;20038;-69
2021/11/01 02:25:48;;;;;;;7.30;1.42;;;15.70;92.40;;;;;;5012847;28;20088;-70
2021/11/01 02:28:20;;;;;;;7.90;1.52;;;15.60;92.40;;;;;;5013309;28;20104;-70
2021/11/01 02:30:46;;;;;;;11.10;1.70;;;15.50;92.30;;;;;;5012977;28;20057;-69
2021/11/01 02:33:14;;;;;;;10.18;1.95;;;15.50;92.30;;;;;;5012573;28;20049;-70
2021/11/01 02:35:42;;;;;;;11.32;1.70;;;15.40;92.30;;;;;;5012361;28;20448;-70
2021/11/01 02:38:11;;;;;;;11.27;1.70;;;15.40;92.40;;;;;;5012560;28;20042;-71
2021/11/01 02:40:36;;;;;;;10.85;1.55;;;15.40;92.40;;;;;;5012593;28;20026;-71
2021/11/01 02:43:02;;;;;;;9.10;1.98;;;15.40;92.40;;;;;;5012119;28;20025;-71
2021/11/01 02:45:28;;;;;;;10.27;1.38;;;15.50;92.50;;;;;;5012571;28;20101;-70
2021/11/01 02:47:53;;;;;;;9.85;2.03;;;15.30;92.50;;;;;;5012395;28;20091;-70
2021/11/01 02:50:20;;;;;;;14.55;2.13;;;15.40;92.60;;;;;;5011311;28;20455;-68
2021/11/01 02:52:46;;;;;;;16.27;1.67;;;15.30;92.60;;;;;;5012439;28;20030;-69
2021/11/01 02:55:14;;;;;;;11.95;2.50;;;15.30;92.60;;;;;;5012764;28;20093;-70
2021/11/01 02:57:42;;;;;;;15.65;2.33;;;15.30;92.60;;;;;;5012465;28;20460;-70
2021/11/01 03:00:08;;;;;;;;;;;15.30;92.50;;;;;;5012753;28;20081;-71
2021/11/01 03:02:34;;;;;;;20.98;3.08;;;15.20;92.50;;;;;;5012381;28;19913;-70
2021/11/01 03:05:03;;;;;;;11.38;1.65;;;15.20;92.60;;;;;;5016671;28;20040;-70
2021/11/01 03:07:28;;;;;;;;;;;15.00;92.70;;;;;;5032932;28;20021;-72
2021/11/01 03:09:54;;;;;;;8.10;2.00;;;15.00;92.90;;;;;;5031843;28;19939;-70
2021/11/01 03:12:24;;;;;;;14.73;2.17;;;14.90;92.80;;;;;;5031882;28;20034;-72
2021/11/01 03:14:56;;;;;;;15.57;2.55;;;14.90;92.90;;;;;;5031745;28;20048;-71
2021/11/01 03:17:24;;;;;;;10.35;1.92;;;14.90;92.90;;;;;;5031825;28;20060;-69
2021/11/01 03:19:58;;;;;;;14.88;1.92;;;14.80;92.90;;;;;;5031386;28;20083;-70
2021/11/01 03:22:25;;;;;;;10.68;2.53;;;14.80;93.00;;;;;;5031020;28;20025;-69
2021/11/01 03:24:55;;;;;;;8.73;2.20;;;14.80;93.10;;;;;;5030697;28;20037;-70
2021/11/01 03:27:22;;;;;;;11.80;1.95;;;14.80;93.00;;;;;;5032032;28;20262;-70
2021/11/01 03:29:49;;;;;;;15.00;2.20;;;14.70;92.90;;;;;;5031474;28;20033;-71
2021/11/01 03:32:15;;;;;;;15.38;3.28;;;14.60;92.90;;;;;;5046890;28;20037;-70
2021/11/01 03:34:43;;;;;;;15.05;2.35;;;14.50;93.10;;;;;;5031256;28;20151;-70
2021/11/01 03:37:14;;;;;;;14.70;3.05;;;14.50;93.20;;;;;;5031771;28;20056;-70
2021/11/01 03:39:44;;;;;;;16.70;2.53;;;14.60;93.20;;;;;;5031211;28;20652;-70
2021/11/01 03:42:11;;;;;;;15.65;2.40;;;14.60;93.10;;;;;;5031148;28;20041;-70
2021/11/01 03:44:42;;;;;;;13.18;1.92;;;14.60;93.00;;;;;;5030147;28;20342;-70
2021/11/01 03:47:10;;;;;;;17.88;2.50;;;14.60;92.80;;;;;;5031146;28;20040;-71
2021/11/01 03:49:40;;;;;;;16.23;2.10;;;14.70;92.90;;;;;;5031242;28;20068;-70
2021/11/01 03:52:16;;;;;;;11.52;2.38;;;14.70;92.90;;;;;;5030421;28;20505;-69
2021/11/01 03:54:43;;;;;;;9.02;2.25;;;14.70;92.90;;;;;;5031207;28;20040;-70
2021/11/01 03:57:10;;;;;;;15.93;2.70;;;14.70;92.90;;;;;;5031109;28;20120;-71
2021/11/01 03:59:38;;;;;;;19.92;2.15;;;14.70;92.80;;;;;;5031248;28;20173;-69
2021/11/01 04:02:03;;;;;;;;;;;14.70;92.80;;;;;;5030466;28;20133;-70
2021/11/01 04:04:29;;;;;;;10.60;1.75;;;14.70;92.80;;;;;;5031116;28;19944;-71
2021/11/01 04:07:00;;;;;;;16.75;2.28;;;14.60;92.70;;;;;;5030968;28;20041;-71
2021/11/01 04:09:25;;;;;;;15.07;1.77;;;14.70;92.70;;;;;;5031128;28;20033;-71
2021/11/01 04:11:52;;;;;;;19.17;2.33;;;14.60;92.70;;;;;;5030801;28;20033;-71
2021/11/01 04:14:24;;;;;;;12.80;2.20;;;14.70;92.70;;;;;;5030850;28;20049;-69
2021/11/01 04:17:01;;;;;;;14.77;2.10;;;14.70;92.60;;;;;;5030787;28;20022;-70
2021/11/01 04:21:54;;;;;;;16.50;2.30;;;14.80;92.40;;;;;;5030703;28;20061;-70
2021/11/01 04:24:21;;;;;;;13.10;2.20;;;14.80;92.40;;;;;;5030687;28;20473;-71
2021/11/01 04:26:48;;;;;;;11.90;2.60;;;14.70;92.50;;;;;;5046476;28;20379;-70
2021/11/01 04:29:15;;;;;;;14.47;2.97;;;14.70;92.40;;;;;;5030722;28;20040;-71
2021/11/01 04:31:44;;;;;;;15.18;2.95;;;14.70;92.60;;;;;;5029534;28;20275;-71
2021/11/01 04:34:28;;;;;;;10.13;1.60;;;14.60;92.50;;;;;;5031526;28;20021;-71
2021/11/01 04:36:56;;;;;;;15.27;2.28;;;14.70;92.60;;;;;;5031754;28;20142;-71
2021/11/01 04:55:20;;;;;;;18.42;2.75;;;14.50;93.00;;;;;;5035144;28;20572;-71
2021/11/01 04:57:46;;;;;;;12.38;2.38;;;14.50;93.10;;;;;;5034619;28;20033;-70
2021/11/01 05:00:13;;;;;;;12.48;1.75;;;14.50;93.20;;;;;;5034390;28;20045;-71
2021/11/01 05:02:43;;;;;;;11.50;1.98;;;14.50;93.00;;;;;;5034463;28;20045;-71
2021/11/01 05:05:10;;;;;;;18.35;2.50;;;14.50;93.10;;;;;;5033790;28;20128;-71
2021/11/01 05:07:35;;;;;;;13.60;2.45;;;14.50;93.10;;;;;;5033189;28;20370;-71
2021/11/01 05:10:23;;;;;;;11.63;1.77;;;14.50;93.10;;;;;;5034429;28;20026;-71
2021/11/01 05:12:50;;;;;;;13.13;1.65;;;14.50;93.10;;;;;;5034164;28;20029;-71
2021/11/01 05:15:33;;;;;;;13.50;1.85;;;14.50;93.00;;;;;;5034039;28;20453;-71
2021/11/01 05:18:03;;;;;;;12.95;1.45;;;14.40;92.90;;;;;;5033885;28;20034;-71
2021/11/01 05:20:36;;;;;;;14.27;2.42;;;14.40;92.90;;;;;;5033739;28;20106;-71
2021/11/01 05:23:18;;;;;;;17.02;2.20;;;14.30;92.80;;;;;;5033577;28;20030;-70
2021/11/01 05:25:55;;;;;;;14.75;1.90;;;14.30;92.90;;;;;;5032754;28;20547;-71
2021/11/01 05:30:56;;;;;;;13.52;2.05;;;14.40;93.10;;;;;;5033530;28;20033;-70
2021/11/01 05:36:06;;;;;;;12.13;2.20;;;14.20;92.80;;;;;;5033536;28;20040;-70
2021/11/01 05:38:34;;;;;;;16.70;2.47;;;14.20;92.90;;;;;;5033330;28;20361;-70
2021/11/01 05:41:00;;;;;;;10.07;1.90;;;14.20;92.90;;;;;;5033314;28;20029;-71
2021/11/01 05:43:25;;;;;;;16.67;2.83;;;14.20;93.00;;;;;;5049326;28;20340;-71
2021/11/01 05:45:51;;;;;;;13.13;2.30;;;14.20;92.90;;;;;;5032061;28;20443;-70
2021/11/01 05:48:17;;;;;;;9.27;1.60;;;14.20;92.90;;;;;;5032441;28;20036;-70
2021/11/01 05:50:42;;;;;;;13.02;2.30;;;14.20;92.80;;;;;;5033161;28;20026;-71
2021/11/01 05:53:11;;;;;;;8.07;1.70;;;14.20;92.80;;;;;;5033048;28;20021;-71
2021/11/01 05:58:18;;;;;;;14.07;2.08;;;14.10;92.90;;;;;;5033167;28;20398;-71
2021/11/01 06:06:32;;;;;;;12.38;2.33;;;14.10;92.80;;;;;;5029624;28;20042;-71
2021/11/01 06:14:27;;;;;;;15.32;2.53;;;14.00;92.90;;;;;;5032891;28;20536;-70
2021/11/01 06:16:52;;;;;;;14.60;3.40;;;14.00;92.80;;;;;;5032656;28;20033;-70
2021/11/01 06:19:18;;;;;;;15.40;2.50;;;14.00;92.80;;;;;;5032847;28;20030;-69
2021/11/01 06:21:47;;;;;;;11.45;1.83;;;14.10;92.80;;;;;;5032532;28;20030;-70
2021/11/01 06:25:00;;;;;;;15.15;2.50;;;14.00;92.80;;;;;;5047853;28;20049;-70
2021/11/01 06:27:00;;;;;;;11.38;1.85;;;14.00;92.80;;;;;;5028283;28;20038;-70
2021/11/01 06:29:33;;;;;;;17.95;2.67;;;14.00;92.70;;;;;;5032454;28;20064;-71
2021/11/01 06:32:12;;;;;;;9.65;1.85;;;14.00;92.70;;;;;;5032588;28;20337;-71
2021/11/01 06:39:13;;;;;;;12.75;1.60;;;14.00;92.70;;;;;;5032375;28;20021;-71
2021/11/01 06:51:29;;;;;;;18.48;3.10;;;14.00;92.80;;;;;;5012616;28;20045;-69
2021/11/01 07:15:40;;;;;;;10.70;1.35;;;13.80;92.30;;;;;;4993282;28;20534;-76
2021/11/01 07:23:28;;;;;;;14.00;2.10;;;13.80;92.20;;;;;;4993653;28;20027;-78
2021/11/01 07:29:50;;;;;;;9.95;1.80;;;13.80;92.10;;;;;;4992947;28;20081;-76
2021/11/01 08:46:46;;;;;;;12.00;2.13;;;14.20;91.00;;;;;;5011863;28;20045;-79
2021/11/01 08:49:34;;;;;;;8.45;1.15;;;14.20;91.00;;;;;;5011287;28;20249;-74
2021/11/01 09:03:25;;;;;;;13.77;2.42;;;14.20;91.30;;;;;;5010837;28;20084;-77
2021/11/01 09:06:06;;;;;;;8.75;1.73;;;14.20;91.40;;;;;;5010530;28;20127;-76
2021/11/01 09:18:43;;;;;;;8.68;1.23;;;14.30;91.40;;;;;;5010884;28;20029;-75
2021/11/01 09:25:12;;;;;;;8.90;1.70;;;14.70;90.80;;;;;;5014029;28;20122;-78
2021/11/01 09:27:40;;;;;;;7.78;1.35;;;14.70;90.70;;;;;;5014075;28;20030;-77
2021/11/01 09:30:35;;;;;;;;;;;14.80;90.90;;;;;;5014571;28;20026;-78
2021/11/01 09:35:55;;;;;;;8.90;2.20;;;14.80;90.30;;;;;;5013910;28;20041;-79
2021/11/01 09:43:27;;;;;;;5.18;1.15;;;14.90;90.00;;;;;;5014701;28;20056;-79
2021/11/01 09:46:01;;;;;;;5.20;1.30;;;14.90;89.90;;;;;;5013886;28;20046;-75
2021/11/01 09:48:27;;;;;;;7.10;1.15;;;15.00;90.00;;;;;;5013759;28;20029;-75
2021/11/01 09:50:54;;;;;;;18.45;6.60;;;15.10;89.70;;;;;;5013528;28;20025;-75
2021/11/01 09:53:28;;;;;;;4.38;1.38;;;15.10;89.20;;;;;;5013663;28;20033;-74
2021/11/01 09:56:07;;;;;;;11.68;1.52;;;15.20;89.00;;;;;;5013213;28;20112;-72
2021/11/01 10:01:21;;;;;;;9.40;1.50;;;15.60;88.10;;;;;;5013791;28;20462;-79
2021/11/01 10:03:50;;;;;;;7.22;1.20;;;15.70;87.50;;;;;;5013312;28;20042;-81
2021/11/01 10:06:23;;;;;;;7.38;1.48;;;15.70;86.90;;;;;;5012941;28;20438;-75
2021/11/01 10:08:56;;;;;;;4.93;1.58;;;15.60;87.00;;;;;;5012208;28;20068;-76
2021/11/01 10:11:25;;;;;;;7.05;1.20;;;15.50;86.70;;;;;;5013247;28;20041;-77
2021/11/01 10:13:56;;;;;;;7.32;1.15;;;15.40;86.40;;;;;;5013442;28;23482;-76
2021/11/01 10:19:30;;;;;;;6.77;1.10;;;15.50;87.00;;;;;;5013353;28;20093;-77
2021/11/01 10:21:59;;;;;;;8.55;2.05;;;15.60;87.60;;;;;;5013234;28;20512;-78
2021/11/01 10:24:40;;;;;;;9.15;2.80;;;15.80;87.30;;;;;;5012972;28;20033;-79
2021/11/01 10:27:14;;;;;;;7.72;1.17;;;15.90;87.00;;;;;;5012963;28;20038;-79
2021/11/01 10:29:58;;;;;;;8.43;1.90;;;15.90;86.60;;;;;;5013107;28;20109;-82
2021/11/01 10:32:32;;;;;;;10.32;1.80;;;15.90;86.30;;;;;;5012867;28;20034;-78
2021/11/01 10:35:17;;;;;;;3.70;1.00;;;15.80;85.90;;;;;;5012743;28;20041;-75
2021/11/01 10:43:57;;;;;;;9.13;1.35;;;15.90;85.20;;;;;;5013092;28;20333;-78
2021/11/01 11:11:08;;;;;;;6.97;1.10;;;15.90;84.60;;;;;;5012393;28;20506;-76
2021/11/01 11:13:52;;;;;;;8.13;1.38;;;15.80;84.30;;;;;;5012286;28;20049;-76
2021/11/01 11:16:43;;;;;;;8.55;1.30;;;15.70;83.50;;;;;;5012509;28;20057;-77
2021/11/01 11:32:59;;;;;;;5.18;1.15;;;16.30;83.70;;;;;;5011953;28;20065;-74
2021/11/01 11:49:27;;;;;;;7.88;1.33;;;16.30;81.90;;;;;;5012044;28;20092;-73
2021/11/01 11:51:57;;;;;;;3.65;1.35;;;16.20;81.40;;;;;;5011583;28;20057;-77
2021/11/01 11:54:45;;;;;;;7.45;1.30;;;16.20;81.20;;;;;;5011473;28;20053;-78
2021/11/01 11:57:35;;;;;;;7.05;1.17;;;16.10;80.70;;;;;;5011515;28;20026;-78
2021/11/01 12:00:09;;;;;;;6.22;1.15;;;16.10;81.00;;;;;;5002558;28;20099;-80
2021/11/01 12:02:43;;;;;;;7.97;1.83;;;16.30;81.10;;;;;;5011551;28;20128;-77
2021/11/01 12:05:26;;;;;;;7.53;1.45;;;16.10;80.30;;;;;;5010819;28;20038;-76
2021/11/01 12:08:49;;;;;;;6.43;1.45;;;16.10;80.30;;;;;;5013582;28;20026;-72
2021/11/01 12:18:55;;;;;;;4.25;1.33;;;16.20;80.60;;;;;;5030876;28;20040;-77
2021/11/01 12:21:22;;;;;;;5.05;1.10;;;16.10;79.80;;;;;;5030828;28;20030;-76
2021/11/01 12:23:49;;;;;;;6.47;1.63;;;16.20;79.70;;;;;;5030799;28;20436;-75
2021/11/01 12:26:18;;;;;;;5.63;1.30;;;16.20;79.90;;;;;;5030422;28;20025;-75
2021/11/01 12:28:49;;;;;;;5.20;1.55;;;16.20;79.40;;;;;;5030558;28;20407;-74
2021/11/01 12:31:16;;;;;;;6.53;1.30;;;16.00;79.10;;;;;;5029948;28;20466;-74
2021/11/01 12:39:41;;;;;;;4.63;1.00;;;16.00;78.60;;;;;;5030646;28;20040;-75
2021/11/01 12:58:07;;;;;;;4.22;1.40;;;15.80;77.90;;;;;;5003490;28;20065;-72
2021/11/01 13:00:39;;;;;;;8.75;1.42;;;15.80;78.20;;;;;;5034044;28;20062;-72
2021/11/01 13:03:17;;;;;;;13.18;1.98;;;15.80;78.40;;;;;;5034173;28;20057;-71
2021/11/01 13:05:46;;;;;;;5.20;0.98;;;15.80;78.30;;;;;;5034060;28;20034;-71
2021/11/01 13:08:20;;;;;;;6.00;1.00;;;15.90;78.50;;;;;;5034124;28;20478;-72
2021/11/01 13:11:09;;;;;;;7.45;0.93;;;15.90;78.60;;;;;;5033927;28;20037;-71
2021/11/01 13:13:47;;;;;;;6.50;1.02;;;15.90;78.90;;;;;;5016432;28;20049;-76
2021/11/01 13:19:11;;;;;;;3.92;1.13;;;15.90;78.20;;;;;;5034312;28;20052;-75
2021/11/01 13:21:48;;;;;;;6.68;1.80;;;15.90;78.30;;;;;;5033965;28;20332;-73
2021/11/01 13:24:14;;;;;;;4.30;1.57;;;15.80;78.30;;;;;;5033714;28;20040;-76
2021/11/01 13:26:58;;;;;;;16.20;2.38;;;15.80;78.70;;;;;;5016183;28;20386;-74
2021/11/01 13:37:38;;;;;;;3.88;1.00;;;15.80;78.70;;;;;;5033763;28;20461;-74
2021/11/01 13:40:15;;;;;;;5.20;1.33;;;15.80;78.80;;;;;;5034247;28;20041;-73
2021/11/01 13:42:57;;;;;;;7.80;1.60;;;15.80;78.70;;;;;;5033420;28;20033;-78
2021/11/01 13:45:24;;;;;;;4.75;1.25;;;15.80;79.10;;;;;;5033511;28;20033;-78
2021/11/01 13:47:53;;;;;;;7.53;2.75;;;15.90;79.00;;;;;;5033426;28;20095;-78
2021/11/01 13:50:25;;;;;;;10.98;2.60;;;15.90;78.90;;;;;;5033062;28;20048;-75
2021/11/01 13:53:04;;;;;;;10.35;2.38;;;15.90;78.60;;;;;;5032385;28;20231;-79
2021/11/01 14:01:20;;;;;;;9.30;1.63;;;16.00;78.40;;;;;;5033008;28;20033;-73
2021/11/01 14:20:05;;;;;;;7.75;1.92;;;15.80;80.40;;;;;;5032739;28;20065;-73
2021/11/01 14:31:00;;;;;;;7.75;1.23;;;15.60;81.10;;;;;;5032661;28;20475;-74
2021/11/01 14:58:31;;;;;;;9.98;2.28;;;15.70;79.00;;;;;;5031859;28;20063;-72
2021/11/01 15:00:54;;;;;;;5.93;2.45;;;15.70;78.00;;;;;;5031672;28;20026;-72
2021/11/01 15:04:21;;;;;;;10.07;2.50;;;15.70;77.30;;;;;;5032233;28;20033;-73
2021/11/01 15:16:39;;;;;;;8.18;2.67;;;15.60;76.30;;;;;;5031697;28;20029;-72
2021/11/01 15:19:20;;;;;;;13.15;3.88;;;15.60;75.80;;;;;;5032176;28;20099;-73
2021/11/01 15:27:25;;;;;;;14.18;2.60;;;15.70;76.60;;;;;;5031710;28;20028;-74
2021/11/01 15:38:19;;;;;;;6.20;1.60;;;15.60;76.60;;;;;;5031900;28;20037;-74
2021/11/01 16:18:59;;;;;;;11.02;2.22;;;15.20;78.80;;;;;;5031210;28;20042;-71
2021/11/01 16:21:25;;;;;;;4.82;1.30;;;15.30;79.20;;;;;;5030880;28;20034;-71
2021/11/01 16:23:51;;;;;;;12.27;3.28;;;15.20;79.70;;;;;;5013042;28;20040;-72
2021/11/01 16:26:28;;;;;;;11.60;5.25;;;15.20;80.10;;;;;;5031038;28;20060;-74
2021/11/01 16:28:59;;;;;;;14.18;4.47;;;15.10;80.90;;;;;;5013156;28;20022;-73
2021/11/01 16:31:33;;;;;;;5.40;1.27;;;15.10;80.90;;;;;;5031862;28;20029;-73
2021/11/01 16:42:05;;;;;;;7.28;1.58;;;15.10;81.60;;;;;;5035152;28;20033;-73
2021/11/01 16:44:32;;;;;;;4.60;1.17;;;15.10;81.60;;;;;;5034931;28;20113;-74
2021/11/01 16:46:58;;;;;;;6.38;1.42;;;15.00;81.90;;;;;;5034850;28;20367;-75
2021/11/01 16:49:27;;;;;;;3.08;1.02;;;15.00;82.30;;;;;;5035441;28;20029;-72
2021/11/01 16:51:53;;;;;;;6.65;1.40;;;14.80;82.60;;;;;;5034506;28;20029;-73
2021/11/01 16:54:25;;;;;;;8.05;1.52;;;14.80;82.90;;;;;;5034554;28;20129;-75
2021/11/01 16:59:38;;;;;;;6.28;2.05;;;14.70;83.50;;;;;;5025536;28;20033;-75
2021/11/01 17:02:31;;;;;;;5.78;2.03;;;14.70;83.50;;;;;;5034870;28;20041;-76
2021/11/01 17:08:01;;;;;;;6.40;1.40;;;14.50;84.00;;;;;;5006188;28;20047;-75
2021/11/01 17:10:50;;;;;;;5.50;1.40;;;14.50;83.90;;;;;;5017525;28;20021;-75
2021/11/01 17:24:13;;;;;;;6.13;1.30;;;14.30;84.70;;;;;;5034583;28;20470;-77
2021/11/01 17:27:06;;;;;;;6.63;1.50;;;14.20;85.00;;;;;;5034636;28;20044;-77
2021/11/01 18:51:11;;;;;;;9.10;2.03;;;13.30;89.60;;;;;;4950900;28;20035;-70
2021/11/01 18:53:44;;;;;;;4.03;1.73;;;13.30;90.10;;;;;;5004875;28;20026;-70
2021/11/01 18:56:12;;;;;;;5.10;1.30;;;13.30;90.00;;;;;;5013470;28;20036;-69
2021/11/01 18:58:40;;;;;;;9.65;2.20;;;13.30;90.00;;;;;;5013170;28;20054;-70
2021/11/01 19:01:10;;;;;;;6.20;1.60;;;13.20;90.00;;;;;;5013923;28;20044;-72
2021/11/01 19:03:48;;;;;;;4.43;1.30;;;13.30;89.80;;;;;;5013096;28;20413;-70
2021/11/01 19:15:07;;;;;;;9.60;1.83;;;13.20;90.30;;;;;;5013167;28;20099;-70
2021/11/01 20:02:47;;;;;;;10.93;1.70;;;13.20;90.10;;;;;;5013179;28;20097;-70
2021/11/01 20:10:12;;;;;;;14.10;4.55;;;12.80;91.30;;;;;;5011237;28;20038;-69
2021/11/01 20:13:02;;;;;;;12.05;3.08;;;12.80;91.30;;;;;;5011206;28;20037;-69
2021/11/01 20:15:53;;;;;;;10.27;1.75;;;12.80;91.70;;;;;;5011030;28;20080;-71
2021/11/01 21:25:38;;;;;;;6.85;2.00;;;12.00;93.20;;;;;;5034906;28;20109;-69
2021/11/01 21:28:03;;;;;;;8.77;2.10;;;12.00;93.10;;;;;;5035249;28;20047;-69
2021/11/01 21:30:29;;;;;;;18.98;2.40;;;12.00;93.30;;;;;;5034882;28;20461;-68
2021/11/01 21:32:55;;;;;;;11.65;2.05;;;11.90;93.10;;;;;;5034621;28;20099;-69
2021/11/01 21:35:27;;;;;;;17.50;2.38;;;11.90;93.30;;;;;;5034686;28;20347;-70
2021/11/01 21:37:52;;;;;;;7.43;2.50;;;11.80;93.30;;;;;;5034385;28;20037;-69
2021/11/01 21:40:18;;;;;;;11.40;2.38;;;11.80;93.30;;;;;;5035065;28;20075;-67
2021/11/01 21:42:44;;;;;;;8.75;2.50;;;11.80;93.20;;;;;;5034603;28;20033;-69
2021/11/01 21:45:10;;;;;;;10.65;1.95;;;11.80;93.10;;;;;;5034430;28;20044;-70
2021/11/01 21:47:37;;;;;;;7.38;1.85;;;11.80;93.40;;;;;;5050091;28;20071;-70
2021/11/01 21:50:05;;;;;;;9.48;2.45;;;11.80;93.10;;;;;;5034372;28;20475;-69
2021/11/01 21:52:31;;;;;;;10.98;2.35;;;11.80;93.20;;;;;;5034005;28;20454;-69
2021/11/01 21:54:58;;;;;;;6.10;2.28;;;11.70;93.60;;;;;;5034982;28;20048;-70
2021/11/01 22:00:17;;;;;;;9.55;2.38;;;11.60;93.60;;;;;;5034465;28;20034;-68
2021/11/01 22:22:06;;;;;;;10.25;2.50;;;11.50;94.10;;;;;;5018662;28;20034;-70
2021/11/01 22:24:28;;;;;;;14.27;2.50;;;11.50;94.10;;;;;;5013640;28;20458;-68
2021/11/01 22:40:43;;;;;;;9.32;2.80;;;11.40;94.30;;;;;;5014200;28;20104;-70
2021/11/01 22:45:46;;;;;;;7.32;1.95;;;11.40;94.50;;;;;;5012380;28;20034;-69
2021/11/01 22:48:23;;;;;;;10.20;3.28;;;11.30;94.60;;;;;;5011329;28;20427;-69
2021/11/01 22:58:51;;;;;;;12.68;2.30;;;11.30;94.60;;;;;;5012474;28;20448;-71
2021/11/01 23:01:25;;;;;;;9.50;2.17;;;11.40;94.60;;;;;;5012764;28;20224;-71
2021/11/01 23:04:09;;;;;;;10.23;2.00;;;11.40;94.50;;;;;;5010873;28;20475;-70
2021/11/01 23:07:06;;;;;;;7.95;1.70;;;11.40;94.30;;;;;;5006992;28;20054;-70
2021/11/01 23:31:36;;;;;;;6.55;1.88;;;11.10;94.80;;;;;;4992707;28;20041;-69
2021/11/01 23:34:11;;;;;;;6.35;1.77;;;11.10;94.60;;;;;;4992150;28;20361;-69
2021/11/01 23:36:38;;;;;;;4.35;1.77;;;11.10;94.70;;;;;;4992023;28;20085;-68
2021/11/01 23:39:08;;;;;;;3.20;1.42;;;11.20;94.60;;;;;;4991883;28;20057;-68
2021/11/01 23:41:37;;;;;;;9.05;1.83;;;11.20;94.50;;;;;;4991328;28;20108;-68
2021/11/01 23:44:03;;;;;;;13.35;1.60;;;11.20;94.50;;;;;;4992076;28;20456;-68
2021/11/01 23:46:29;;;;;;;7.60;1.40;;;11.20;94.50;;;;;;4992273;28;20636;-68
2021/11/01 23:48:55;;;;;;;9.95;1.70;;;11.10;94.50;;;;;;4991898;28;20108;-68
2021/11/01 23:51:30;;;;;;;6.30;1.90;;;11.20;94.50;;;;;;4991971;28;20040;-68
2021/11/01 23:54:12;;;;;;;10.52;1.55;;;11.20;94.50;;;;;;4991584;28;20106;-69
2021/11/01 23:56:39;;;;;;;8.98;1.85;;;11.10;94.60;;;;;;4991689;28;20026;-69
2021/11/01 23:59:05;;;;;;;10.30;1.60;;;11.10;94.70;;;;;;4990510;28;20053;-69
